Sayward, Canada
Current Conditions -  °F | °C
As of 9:00 PM on Tuesday 25 Nov 2014 (Local Time) from CYBL Reporting Station
Light Rain Light Rain  
Wind Chill: 39°   Ceiling: 1200
Heat Index: 39°   Visibility: 2mi
Dew Point: 39°   Wind: 3mph
Humidity: 100%   Direction: 320°NW
Pressure: 30.14"   Gusts: NA
Location:  50.35°N, 125.92°W
Report Text: CYBL 260500Z 32003KT 2SM -RA BR SCT006 BKN012 OVC020 04/04 A3014 RMK SF4SC2SC2 LAST OBS/NEXT 261400 UTC SLP209
Loading
Personal Weather Stations






























Interactive Weather Map New forecast layout! Learn more

10-Day Weather Forecast

Advertisements
Track Severe Weather on mobile